Old Mission, Michigan
Current Conditions -  °F | °C
As of 6:53 PM on Saturday 22 Nov 2014 (Local Time) from KACB Reporting Station
Moderate Fog Moderate Fog  
Wind Chill: 39°   Ceiling: 200
Heat Index: 39°   Visibility: 0.5mi
Dew Point: 38°   Wind: 3mph
Humidity: 96%   Direction: 190°S
Pressure: 29.79"   Gusts: NA
Location:  44.96°N, 85.49°W
Report Text: KACB 222353Z AUTO 19003KT 1/2SM FG OVC002 04/04 A2979 RMK AO2 T00410035 10042 20036
Loading
Personal Weather Stations






























Interactive Weather Map New forecast layout! Learn more

10-Day Weather Forecast

Advertisements
Track Severe Weather on mobile